sensor_id;sensor_type;location;lat;lon;timestamp;temperature;humidity
35313;DHT22;21425;50.454;30.466;2023-03-14T00:00:33;4.30;99.90
35313;DHT22;21425;50.454;30.466;2023-03-14T00:02:58;4.20;99.90
35313;DHT22;21425;50.454;30.466;2023-03-14T00:05:24;5.80;99.90
35313;DHT22;21425;50.454;30.466;2023-03-14T00:07:49;4.20;99.90
35313;DHT22;21425;50.454;30.466;2023-03-14T00:10:15;4.10;99.90
35313;DHT22;21425;50.454;30.466;2023-03-14T00:12:40;8.30;99.90
35313;DHT22;21425;50.454;30.466;2023-03-14T00:15:06;5.00;99.90
35313;DHT22;21425;50.454;30.466;2023-03-14T00:17:33;4.20;99.90
35313;DHT22;21425;50.454;30.466;2023-03-14T00:19:59;2.20;99.90
35313;DHT22;21425;50.454;30.466;2023-03-14T00:22:36;4.10;99.90
35313;DHT22;21425;50.454;30.466;2023-03-14T00:25:03;3.90;99.90
35313;DHT22;21425;50.454;30.466;2023-03-14T00:27:28;4.00;99.90
35313;DHT22;21425;50.454;30.466;2023-03-14T00:29:54;4.30;99.90
35313;DHT22;21425;50.454;30.466;2023-03-14T00:32:19;6.80;99.90
35313;DHT22;21425;50.454;30.466;2023-03-14T00:34:45;3.90;99.90
35313;DHT22;21425;50.454;30.466;2023-03-14T00:37:10;4.00;99.90
35313;DHT22;21425;50.454;30.466;2023-03-14T00:39:36;4.00;99.90
35313;DHT22;21425;50.454;30.466;2023-03-14T00:42:01;5.80;99.90
35313;DHT22;21425;50.454;30.466;2023-03-14T00:44:27;3.90;99.90
35313;DHT22;21425;50.454;30.466;2023-03-14T00:46:52;4.10;99.90
35313;DHT22;21425;50.454;30.466;2023-03-14T00:49:18;2.60;99.90
35313;DHT22;21425;50.454;30.466;2023-03-14T00:51:43;4.20;99.90
35313;DHT22;21425;50.454;30.466;2023-03-14T00:54:09;4.20;99.90
35313;DHT22;21425;50.454;30.466;2023-03-14T00:56:34;4.00;99.90
35313;DHT22;21425;50.454;30.466;2023-03-14T00:59:00;4.90;99.90
35313;DHT22;21425;50.454;30.466;2023-03-14T01:01:25;3.90;99.90
35313;DHT22;21425;50.454;30.466;2023-03-14T01:03:51;4.30;99.90
35313;DHT22;21425;50.454;30.466;2023-03-14T01:06:24;3.80;99.90
35313;DHT22;21425;50.454;30.466;2023-03-14T01:08:50;3.80;99.90
35313;DHT22;21425;50.454;30.466;2023-03-14T01:11:21;3.80;99.90
35313;DHT22;21425;50.454;30.466;2023-03-14T01:13:47;1.60;99.90
35313;DHT22;21425;50.454;30.466;2023-03-14T01:16:13;4.00;99.90
35313;DHT22;21425;50.454;30.466;2023-03-14T01:18:39;3.90;99.90
35313;DHT22;21425;50.454;30.466;2023-03-14T01:21:47;3.70;99.90
35313;DHT22;21425;50.454;30.466;2023-03-14T01:23:54;1.80;99.90
35313;DHT22;21425;50.454;30.466;2023-03-14T01:26:21;3.70;99.90
35313;DHT22;21425;50.454;30.466;2023-03-14T01:28:48;3.50;99.90
35313;DHT22;21425;50.454;30.466;2023-03-14T01:31:13;7.20;99.90
35313;DHT22;21425;50.454;30.466;2023-03-14T01:33:39;2.60;99.90
35313;DHT22;21425;50.454;30.466;2023-03-14T01:36:05;3.70;99.90
35313;DHT22;21425;50.454;30.466;2023-03-14T01:38:32;3.50;99.90
35313;DHT22;21425;50.454;30.466;2023-03-14T01:40:58;1.90;99.90
35313;DHT22;21425;50.454;30.466;2023-03-14T01:43:24;3.40;99.90
35313;DHT22;21425;50.454;30.466;2023-03-14T01:48:53;3.60;99.90
35313;DHT22;21425;50.454;30.466;2023-03-14T01:53:44;3.60;99.90
35313;DHT22;21425;50.454;30.466;2023-03-14T01:56:11;3.30;99.90
35313;DHT22;21425;50.454;30.466;2023-03-14T01:58:39;3.50;99.90
35313;DHT22;21425;50.454;30.466;2023-03-14T02:01:06;3.50;99.90
35313;DHT22;21425;50.454;30.466;2023-03-14T02:03:33;4.70;99.90
35313;DHT22;21425;50.454;30.466;2023-03-14T02:06:03;3.50;99.90
35313;DHT22;21425;50.454;30.466;2023-03-14T02:08:30;2.90;99.90
35313;DHT22;21425;50.454;30.466;2023-03-14T02:10:56;3.10;99.90
35313;DHT22;21425;50.454;30.466;2023-03-14T02:13:22;3.40;99.90
35313;DHT22;21425;50.454;30.466;2023-03-14T02:15:47;3.30;99.90
35313;DHT22;21425;50.454;30.466;2023-03-14T02:18:13;4.00;99.90
35313;DHT22;21425;50.454;30.466;2023-03-14T02:20:46;3.20;99.90
35313;DHT22;21425;50.454;30.466;2023-03-14T02:23:13;2.90;99.90
35313;DHT22;21425;50.454;30.466;2023-03-14T02:28:18;2.80;99.90
35313;DHT22;21425;50.454;30.466;2023-03-14T02:30:44;2.70;99.90
35313;DHT22;21425;50.454;30.466;2023-03-14T02:33:10;2.80;99.90
35313;DHT22;21425;50.454;30.466;2023-03-14T02:40:36;0.40;99.90
35313;DHT22;21425;50.454;30.466;2023-03-14T02:43:01;2.70;99.90
35313;DHT22;21425;50.454;30.466;2023-03-14T02:45:37;2.90;99.90
35313;DHT22;21425;50.454;30.466;2023-03-14T02:48:05;2.70;99.90
35313;DHT22;21425;50.454;30.466;2023-03-14T02:50:32;2.60;99.90
35313;DHT22;21425;50.454;30.466;2023-03-14T02:52:58;2.60;99.90
35313;DHT22;21425;50.454;30.466;2023-03-14T02:55:24;2.50;99.90
35313;DHT22;21425;50.454;30.466;2023-03-14T02:57:51;2.60;99.90
35313;DHT22;21425;50.454;30.466;2023-03-14T03:00:17;2.50;99.90
35313;DHT22;21425;50.454;30.466;2023-03-14T03:02:42;2.50;99.90
35313;DHT22;21425;50.454;30.466;2023-03-14T03:05:08;2.80;99.90
35313;DHT22;21425;50.454;30.466;2023-03-14T03:07:34;2.70;99.90
35313;DHT22;21425;50.454;30.466;2023-03-14T03:09:59;2.50;99.90
35313;DHT22;21425;50.454;30.466;2023-03-14T03:12:25;5.10;99.90
35313;DHT22;21425;50.454;30.466;2023-03-14T03:14:50;2.30;99.90
35313;DHT22;21425;50.454;30.466;2023-03-14T03:17:16;3.50;99.90
35313;DHT22;21425;50.454;30.466;2023-03-14T03:19:42;3.90;99.90
35313;DHT22;21425;50.454;30.466;2023-03-14T03:22:07;3.60;99.90
35313;DHT22;21425;50.454;30.466;2023-03-14T03:24:33;2.10;99.90
35313;DHT22;21425;50.454;30.466;2023-03-14T03:26:58;2.10;99.90
35313;DHT22;21425;50.454;30.466;2023-03-14T03:29:24;2.10;99.90
35313;DHT22;21425;50.454;30.466;2023-03-14T03:31:49;1.80;99.90
35313;DHT22;21425;50.454;30.466;2023-03-14T03:34:15;2.50;99.90
35313;DHT22;21425;50.454;30.466;2023-03-14T03:36:40;-0.90;99.90
35313;DHT22;21425;50.454;30.466;2023-03-14T03:39:06;2.20;99.90
35313;DHT22;21425;50.454;30.466;2023-03-14T03:41:32;-1.90;99.90
35313;DHT22;21425;50.454;30.466;2023-03-14T03:43:58;1.80;99.90
35313;DHT22;21425;50.454;30.466;2023-03-14T03:46:24;1.80;99.90
35313;DHT22;21425;50.454;30.466;2023-03-14T03:48:54;4.20;99.90
35313;DHT22;21425;50.454;30.466;2023-03-14T03:51:19;2.10;99.90
35313;DHT22;21425;50.454;30.466;2023-03-14T03:53:45;2.00;99.90
35313;DHT22;21425;50.454;30.466;2023-03-14T03:56:10;1.70;99.90
35313;DHT22;21425;50.454;30.466;2023-03-14T03:58:36;1.70;99.90
35313;DHT22;21425;50.454;30.466;2023-03-14T04:01:04;5.00;99.90
35313;DHT22;21425;50.454;30.466;2023-03-14T04:03:30;1.90;99.90
35313;DHT22;21425;50.454;30.466;2023-03-14T04:06:02;1.70;99.90
35313;DHT22;21425;50.454;30.466;2023-03-14T04:08:28;2.00;99.90
35313;DHT22;21425;50.454;30.466;2023-03-14T04:10:57;2.10;99.90
35313;DHT22;21425;50.454;30.466;2023-03-14T04:13:23;1.80;99.90
35313;DHT22;21425;50.454;30.466;2023-03-14T04:15:48;1.80;99.90
35313;DHT22;21425;50.454;30.466;2023-03-14T04:18:14;1.90;99.90
35313;DHT22;21425;50.454;30.466;2023-03-14T04:20:39;2.10;99.90
35313;DHT22;21425;50.454;30.466;2023-03-14T04:23:04;1.80;99.90
35313;DHT22;21425;50.454;30.466;2023-03-14T04:25:30;1.80;99.90
35313;DHT22;21425;50.454;30.466;2023-03-14T04:27:55;2.10;99.90
35313;DHT22;21425;50.454;30.466;2023-03-14T04:30:21;1.80;99.90
35313;DHT22;21425;50.454;30.466;2023-03-14T04:32:47;0.80;99.90
35313;DHT22;21425;50.454;30.466;2023-03-14T04:35:12;2.00;99.90
35313;DHT22;21425;50.454;30.466;2023-03-14T04:37:38;0.40;99.90
35313;DHT22;21425;50.454;30.466;2023-03-14T04:40:03;1.90;99.90
35313;DHT22;21425;50.454;30.466;2023-03-14T04:42:31;1.90;99.90
35313;DHT22;21425;50.454;30.466;2023-03-14T04:44:57;1.90;99.90
35313;DHT22;21425;50.454;30.466;2023-03-14T04:47:22;0.90;99.90
35313;DHT22;21425;50.454;30.466;2023-03-14T04:49:48;2.00;99.90
35313;DHT22;21425;50.454;30.466;2023-03-14T04:52:13;2.00;99.90
35313;DHT22;21425;50.454;30.466;2023-03-14T04:54:39;2.20;99.90
35313;DHT22;21425;50.454;30.466;2023-03-14T04:57:04;2.20;99.90
35313;DHT22;21425;50.454;30.466;2023-03-14T04:59:29;0.80;99.90
35313;DHT22;21425;50.454;30.466;2023-03-14T05:01:55;2.20;99.90
35313;DHT22;21425;50.454;30.466;2023-03-14T05:04:20;2.40;99.90
35313;DHT22;21425;50.454;30.466;2023-03-14T05:06:46;2.30;99.90
35313;DHT22;21425;50.454;30.466;2023-03-14T05:09:11;2.40;99.90
35313;DHT22;21425;50.454;30.466;2023-03-14T05:11:37;3.00;99.90
35313;DHT22;21425;50.454;30.466;2023-03-14T05:14:02;2.30;99.90
35313;DHT22;21425;50.454;30.466;2023-03-14T05:16:28;2.70;99.90
35313;DHT22;21425;50.454;30.466;2023-03-14T05:18:53;3.20;99.90
35313;DHT22;21425;50.454;30.466;2023-03-14T05:21:19;2.80;99.90
35313;DHT22;21425;50.454;30.466;2023-03-14T05:23:44;3.20;99.90
35313;DHT22;21425;50.454;30.466;2023-03-14T05:26:10;3.10;99.90
35313;DHT22;21425;50.454;30.466;2023-03-14T05:28:35;3.40;99.90
35313;DHT22;21425;50.454;30.466;2023-03-14T05:31:01;7.60;99.90
35313;DHT22;21425;50.454;30.466;2023-03-14T05:33:26;5.40;99.90
35313;DHT22;21425;50.454;30.466;2023-03-14T05:35:51;3.70;99.90
35313;DHT22;21425;50.454;30.466;2023-03-14T05:38:17;3.90;99.90
35313;DHT22;21425;50.454;30.466;2023-03-14T05:40:44;3.80;99.90
35313;DHT22;21425;50.454;30.466;2023-03-14T05:43:10;3.60;99.90
35313;DHT22;21425;50.454;30.466;2023-03-14T05:45:35;3.80;99.90
35313;DHT22;21425;50.454;30.466;2023-03-14T05:48:01;3.90;99.90
35313;DHT22;21425;50.454;30.466;2023-03-14T05:50:26;4.20;99.90
35313;DHT22;21425;50.454;30.466;2023-03-14T05:52:52;4.10;99.90
35313;DHT22;21425;50.454;30.466;2023-03-14T05:55:17;4.30;99.90
35313;DHT22;21425;50.454;30.466;2023-03-14T05:57:43;4.40;99.90
35313;DHT22;21425;50.454;30.466;2023-03-14T06:00:08;4.50;99.90
35313;DHT22;21425;50.454;30.466;2023-03-14T06:02:34;4.30;99.90
35313;DHT22;21425;50.454;30.466;2023-03-14T06:04:59;5.60;99.90
35313;DHT22;21425;50.454;30.466;2023-03-14T06:07:25;5.60;99.90
35313;DHT22;21425;50.454;30.466;2023-03-14T06:09:50;2.90;99.90
35313;DHT22;21425;50.454;30.466;2023-03-14T06:12:16;4.80;99.90
35313;DHT22;21425;50.454;30.466;2023-03-14T06:14:42;3.90;99.90
35313;DHT22;21425;50.454;30.466;2023-03-14T06:17:07;8.00;99.90
35313;DHT22;21425;50.454;30.466;2023-03-14T06:19:33;4.40;99.90
35313;DHT22;21425;50.454;30.466;2023-03-14T06:21:58;6.90;99.90
35313;DHT22;21425;50.454;30.466;2023-03-14T06:24:24;5.90;99.90
35313;DHT22;21425;50.454;30.466;2023-03-14T06:26:49;4.50;99.90
35313;DHT22;21425;50.454;30.466;2023-03-14T06:29:15;4.50;99.90
35313;DHT22;21425;50.454;30.466;2023-03-14T06:31:40;4.60;99.90
35313;DHT22;21425;50.454;30.466;2023-03-14T06:34:06;4.60;99.90
35313;DHT22;21425;50.454;30.466;2023-03-14T06:36:31;6.00;99.90
35313;DHT22;21425;50.454;30.466;2023-03-14T06:38:57;4.60;99.90
35313;DHT22;21425;50.454;30.466;2023-03-14T06:41:22;5.20;99.90
35313;DHT22;21425;50.454;30.466;2023-03-14T06:43:51;4.70;99.90
35313;DHT22;21425;50.454;30.466;2023-03-14T06:46:16;5.30;99.90
35313;DHT22;21425;50.454;30.466;2023-03-14T06:48:42;4.90;99.90
35313;DHT22;21425;50.454;30.466;2023-03-14T06:51:07;4.60;99.90
35313;DHT22;21425;50.454;30.466;2023-03-14T06:53:33;4.60;99.90
35313;DHT22;21425;50.454;30.466;2023-03-14T06:55:58;1.80;99.90
35313;DHT22;21425;50.454;30.466;2023-03-14T06:58:24;5.00;99.90
35313;DHT22;21425;50.454;30.466;2023-03-14T07:00:49;4.60;99.90
35313;DHT22;21425;50.454;30.466;2023-03-14T07:03:15;8.10;99.90
35313;DHT22;21425;50.454;30.466;2023-03-14T07:05:40;4.90;99.90
35313;DHT22;21425;50.454;30.466;2023-03-14T07:08:07;4.50;99.90
35313;DHT22;21425;50.454;30.466;2023-03-14T07:10:33;4.80;99.90
35313;DHT22;21425;50.454;30.466;2023-03-14T07:12:58;5.00;99.90
35313;DHT22;21425;50.454;30.466;2023-03-14T07:15:23;5.20;99.90
35313;DHT22;21425;50.454;30.466;2023-03-14T07:17:49;2.40;99.90
35313;DHT22;21425;50.454;30.466;2023-03-14T07:20:15;5.30;99.90
35313;DHT22;21425;50.454;30.466;2023-03-14T07:22:40;4.10;99.90
35313;DHT22;21425;50.454;30.466;2023-03-14T07:25:06;9.60;99.90
35313;DHT22;21425;50.454;30.466;2023-03-14T07:27:31;5.40;99.90
35313;DHT22;21425;50.454;30.466;2023-03-14T07:29:57;5.70;99.90
35313;DHT22;21425;50.454;30.466;2023-03-14T07:32:22;5.60;99.90
35313;DHT22;21425;50.454;30.466;2023-03-14T07:34:48;5.80;99.90
35313;DHT22;21425;50.454;30.466;2023-03-14T07:37:13;6.00;99.90
35313;DHT22;21425;50.454;30.466;2023-03-14T07:39:39;7.70;99.90
35313;DHT22;21425;50.454;30.466;2023-03-14T07:42:04;5.90;99.90
35313;DHT22;21425;50.454;30.466;2023-03-14T07:44:30;6.10;99.90
35313;DHT22;21425;50.454;30.466;2023-03-14T07:46:55;6.30;99.90
35313;DHT22;21425;50.454;30.466;2023-03-14T07:49:21;6.40;99.90
35313;DHT22;21425;50.454;30.466;2023-03-14T07:51:49;6.40;99.80
35313;DHT22;21425;50.454;30.466;2023-03-14T07:54:15;6.40;99.90
35313;DHT22;21425;50.454;30.466;2023-03-14T07:56:41;7.90;96.50
35313;DHT22;21425;50.454;30.466;2023-03-14T07:59:06;6.80;95.80
35313;DHT22;21425;50.454;30.466;2023-03-14T08:01:32;4.70;93.90
35313;DHT22;21425;50.454;30.466;2023-03-14T08:03:58;6.70;94.30
35313;DHT22;21425;50.454;30.466;2023-03-14T08:06:24;6.80;92.80
35313;DHT22;21425;50.454;30.466;2023-03-14T08:08:49;6.80;92.10
35313;DHT22;21425;50.454;30.466;2023-03-14T08:11:15;8.90;91.20
35313;DHT22;21425;50.454;30.466;2023-03-14T08:13:40;10.90;91.60
35313;DHT22;21425;50.454;30.466;2023-03-14T08:16:06;7.50;90.40
35313;DHT22;21425;50.454;30.466;2023-03-14T08:18:32;7.50;83.20
35313;DHT22;21425;50.454;30.466;2023-03-14T08:20:57;7.50;81.80
35313;DHT22;21425;50.454;30.466;2023-03-14T08:23:23;7.70;78.70
35313;DHT22;21425;50.454;30.466;2023-03-14T08:25:49;6.70;76.70
35313;DHT22;21425;50.454;30.466;2023-03-14T08:28:15;7.60;78.00
35313;DHT22;21425;50.454;30.466;2023-03-14T08:30:41;6.50;76.70
35313;DHT22;21425;50.454;30.466;2023-03-14T08:33:06;9.60;76.10
35313;DHT22;21425;50.454;30.466;2023-03-14T08:35:32;7.80;75.30
35313;DHT22;21425;50.454;30.466;2023-03-14T08:37:57;9.10;74.40
35313;DHT22;21425;50.454;30.466;2023-03-14T08:40:23;7.70;73.50
35313;DHT22;21425;50.454;30.466;2023-03-14T08:42:49;7.90;72.20
35313;DHT22;21425;50.454;30.466;2023-03-14T08:45:15;8.00;72.30
35313;DHT22;21425;50.454;30.466;2023-03-14T08:47:41;8.20;73.00
35313;DHT22;21425;50.454;30.466;2023-03-14T08:50:08;10.20;72.60
35313;DHT22;21425;50.454;30.466;2023-03-14T08:52:34;8.30;70.90
35313;DHT22;21425;50.454;30.466;2023-03-14T08:54:59;9.80;71.40
35313;DHT22;21425;50.454;30.466;2023-03-14T08:57:25;8.90;70.30
35313;DHT22;21425;50.454;30.466;2023-03-14T08:59:53;8.60;69.90
35313;DHT22;21425;50.454;30.466;2023-03-14T09:02:19;8.40;69.10
35313;DHT22;21425;50.454;30.466;2023-03-14T09:04:45;8.30;68.90
35313;DHT22;21425;50.454;30.466;2023-03-14T09:07:10;8.50;69.10
35313;DHT22;21425;50.454;30.466;2023-03-14T09:09:36;8.50;68.30
35313;DHT22;21425;50.454;30.466;2023-03-14T09:12:01;8.50;68.80
35313;DHT22;21425;50.454;30.466;2023-03-14T09:14:27;8.60;68.80
35313;DHT22;21425;50.454;30.466;2023-03-14T09:16:54;8.60;68.40
35313;DHT22;21425;50.454;30.466;2023-03-14T09:19:19;8.90;68.50
35313;DHT22;21425;50.454;30.466;2023-03-14T09:21:45;10.20;69.60
35313;DHT22;21425;50.454;30.466;2023-03-14T09:24:10;8.90;69.60
35313;DHT22;21425;50.454;30.466;2023-03-14T09:26:36;10.70;70.40
35313;DHT22;21425;50.454;30.466;2023-03-14T09:29:03;8.80;68.30
35313;DHT22;21425;50.454;30.466;2023-03-14T09:31:28;9.90;68.30
35313;DHT22;21425;50.454;30.466;2023-03-14T09:33:55;8.90;67.80
35313;DHT22;21425;50.454;30.466;2023-03-14T09:36:20;9.00;68.00
35313;DHT22;21425;50.454;30.466;2023-03-14T09:38:46;9.40;68.50
35313;DHT22;21425;50.454;30.466;2023-03-14T09:41:12;10.10;68.00
35313;DHT22;21425;50.454;30.466;2023-03-14T09:43:38;10.00;67.70
35313;DHT22;21425;50.454;30.466;2023-03-14T09:46:05;9.30;67.00
35313;DHT22;21425;50.454;30.466;2023-03-14T09:48:32;9.30;66.90
35313;DHT22;21425;50.454;30.466;2023-03-14T09:50:59;9.20;66.50
35313;DHT22;21425;50.454;30.466;2023-03-14T09:53:30;9.50;65.90
35313;DHT22;21425;50.454;30.466;2023-03-14T09:55:57;9.30;66.20
35313;DHT22;21425;50.454;30.466;2023-03-14T09:58:24;9.80;67.20
35313;DHT22;21425;50.454;30.466;2023-03-14T10:00:50;9.60;66.20
35313;DHT22;21425;50.454;30.466;2023-03-14T10:03:21;9.30;65.60
35313;DHT22;21425;50.454;30.466;2023-03-14T10:05:48;10.00;65.70
35313;DHT22;21425;50.454;30.466;2023-03-14T10:08:13;9.90;65.30
35313;DHT22;21425;50.454;30.466;2023-03-14T10:10:39;11.40;65.70
35313;DHT22;21425;50.454;30.466;2023-03-14T10:15:37;9.80;63.10
35313;DHT22;21425;50.454;30.466;2023-03-14T10:18:03;11.80;63.90
35313;DHT22;21425;50.454;30.466;2023-03-14T10:20:36;10.20;63.00
35313;DHT22;21425;50.454;30.466;2023-03-14T10:25:38;10.20;61.80
35313;DHT22;21425;50.454;30.466;2023-03-14T10:28:04;10.20;60.20
35313;DHT22;21425;50.454;30.466;2023-03-14T10:30:40;10.20;60.50
35313;DHT22;21425;50.454;30.466;2023-03-14T10:33:18;10.20;61.30
35313;DHT22;21425;50.454;30.466;2023-03-14T10:35:45;10.70;60.80
35313;DHT22;21425;50.454;30.466;2023-03-14T10:38:15;10.40;59.40
35313;DHT22;21425;50.454;30.466;2023-03-14T10:40:46;10.30;59.00
35313;DHT22;21425;50.454;30.466;2023-03-14T10:43:15;10.30;59.20
35313;DHT22;21425;50.454;30.466;2023-03-14T10:45:42;10.70;59.40
35313;DHT22;21425;50.454;30.466;2023-03-14T10:48:17;10.60;60.00
35313;DHT22;21425;50.454;30.466;2023-03-14T10:50:48;10.40;60.30
35313;DHT22;21425;50.454;30.466;2023-03-14T10:53:16;10.70;59.80
35313;DHT22;21425;50.454;30.466;2023-03-14T10:55:43;10.80;59.70
35313;DHT22;21425;50.454;30.466;2023-03-14T10:58:26;10.70;59.50
35313;DHT22;21425;50.454;30.466;2023-03-14T11:00:54;10.70;58.80
35313;DHT22;21425;50.454;30.466;2023-03-14T11:03:22;12.10;59.30
35313;DHT22;21425;50.454;30.466;2023-03-14T11:06:04;10.80;58.00
35313;DHT22;21425;50.454;30.466;2023-03-14T11:08:40;10.70;57.80
35313;DHT22;21425;50.454;30.466;2023-03-14T11:11:09;10.70;58.00
35313;DHT22;21425;50.454;30.466;2023-03-14T11:16:09;11.30;58.70
35313;DHT22;21425;50.454;30.466;2023-03-14T11:32:32;11.00;56.30
35313;DHT22;21425;50.454;30.466;2023-03-14T11:35:01;11.00;56.10
35313;DHT22;21425;50.454;30.466;2023-03-14T11:37:35;11.00;55.80
35313;DHT22;21425;50.454;30.466;2023-03-14T11:42:30;11.00;56.20
35313;DHT22;21425;50.454;30.466;2023-03-14T11:44:57;12.30;57.00
35313;DHT22;21425;50.454;30.466;2023-03-14T11:47:30;11.30;56.40
35313;DHT22;21425;50.454;30.466;2023-03-14T11:49:58;11.40;55.70
35313;DHT22;21425;50.454;30.466;2023-03-14T11:54:56;11.30;55.20
35313;DHT22;21425;50.454;30.466;2023-03-14T11:57:23;11.40;54.60
35313;DHT22;21425;50.454;30.466;2023-03-14T12:10:18;11.50;51.70
35313;DHT22;21425;50.454;30.466;2023-03-14T12:12:44;11.60;51.50
35313;DHT22;21425;50.454;30.466;2023-03-14T12:15:15;11.60;51.10
35313;DHT22;21425;50.454;30.466;2023-03-14T12:17:42;12.20;50.50
35313;DHT22;21425;50.454;30.466;2023-03-14T12:30:14;12.20;48.30
35313;DHT22;21425;50.454;30.466;2023-03-14T12:32:40;12.10;48.40
35313;DHT22;21425;50.454;30.466;2023-03-14T12:35:48;12.20;48.00
35313;DHT22;21425;50.454;30.466;2023-03-14T12:37:54;12.90;47.30
35313;DHT22;21425;50.454;30.466;2023-03-14T12:40:25;13.10;44.90
35313;DHT22;21425;50.454;30.466;2023-03-14T12:43:02;13.50;44.70
35313;DHT22;21425;50.454;30.466;2023-03-14T12:45:33;13.70;43.30
35313;DHT22;21425;50.454;30.466;2023-03-14T12:51:03;12.20;41.60
35313;DHT22;21425;50.454;30.466;2023-03-14T12:53:39;13.10;43.40
35313;DHT22;21425;50.454;30.466;2023-03-14T12:58:39;13.70;43.40
35313;DHT22;21425;50.454;30.466;2023-03-14T13:01:14;13.20;43.20
35313;DHT22;21425;50.454;30.466;2023-03-14T13:06:10;14.80;41.00
35313;DHT22;21425;50.454;30.466;2023-03-14T13:08:43;15.40;40.00
35313;DHT22;21425;50.454;30.466;2023-03-14T13:11:12;17.00;37.90
35313;DHT22;21425;50.454;30.466;2023-03-14T13:13:42;16.90;36.00
35313;DHT22;21425;50.454;30.466;2023-03-14T13:16:12;18.10;34.70
35313;DHT22;21425;50.454;30.466;2023-03-14T13:18:40;18.90;33.30
35313;DHT22;21425;50.454;30.466;2023-03-14T13:21:09;18.50;31.60
35313;DHT22;21425;50.454;30.466;2023-03-14T13:23:37;18.20;33.40
35313;DHT22;21425;50.454;30.466;2023-03-14T13:26:02;17.20;33.30
35313;DHT22;21425;50.454;30.466;2023-03-14T13:28:29;16.60;35.10
35313;DHT22;21425;50.454;30.466;2023-03-14T13:30:56;15.70;36.50
35313;DHT22;21425;50.454;30.466;2023-03-14T13:33:22;16.50;35.40
35313;DHT22;21425;50.454;30.466;2023-03-14T13:35:49;15.50;34.50
35313;DHT22;21425;50.454;30.466;2023-03-14T13:38:17;16.70;34.50
35313;DHT22;21425;50.454;30.466;2023-03-14T13:40:43;14.00;32.30
35313;DHT22;21425;50.454;30.466;2023-03-14T13:45:55;16.90;35.10
35313;DHT22;21425;50.454;30.466;2023-03-14T13:48:21;15.70;37.90
35313;DHT22;21425;50.454;30.466;2023-03-14T13:50:51;15.30;39.30
35313;DHT22;21425;50.454;30.466;2023-03-14T13:53:17;14.40;40.90
35313;DHT22;21425;50.454;30.466;2023-03-14T13:55:43;13.80;42.40
35313;DHT22;21425;50.454;30.466;2023-03-14T13:58:11;13.90;43.10
35313;DHT22;21425;50.454;30.466;2023-03-14T14:00:38;16.70;44.30
35313;DHT22;21425;50.454;30.466;2023-03-14T14:03:04;13.60;43.60
35313;DHT22;21425;50.454;30.466;2023-03-14T14:05:35;13.60;44.50
35313;DHT22;21425;50.454;30.466;2023-03-14T14:08:02;13.20;44.50
35313;DHT22;21425;50.454;30.466;2023-03-14T14:10:29;12.80;45.40
35313;DHT22;21425;50.454;30.466;2023-03-14T14:12:57;13.00;45.80
35313;DHT22;21425;50.454;30.466;2023-03-14T14:15:28;13.60;44.70
35313;DHT22;21425;50.454;30.466;2023-03-14T14:17:56;13.80;44.20
35313;DHT22;21425;50.454;30.466;2023-03-14T14:20:24;13.50;43.80
35313;DHT22;21425;50.454;30.466;2023-03-14T14:22:57;13.30;43.80
35313;DHT22;21425;50.454;30.466;2023-03-14T14:25:22;13.30;44.20
35313;DHT22;21425;50.454;30.466;2023-03-14T14:27:49;14.50;44.70
35313;DHT22;21425;50.454;30.466;2023-03-14T14:32:44;13.50;43.50
35313;DHT22;21425;50.454;30.466;2023-03-14T14:35:10;13.70;43.10
35313;DHT22;21425;50.454;30.466;2023-03-14T14:37:43;14.10;42.70
35313;DHT22;21425;50.454;30.466;2023-03-14T14:40:10;13.80;42.00
35313;DHT22;21425;50.454;30.466;2023-03-14T14:42:40;12.30;42.30
35313;DHT22;21425;50.454;30.466;2023-03-14T14:45:06;13.10;44.00
35313;DHT22;21425;50.454;30.466;2023-03-14T14:47:32;13.20;44.00
35313;DHT22;21425;50.454;30.466;2023-03-14T14:49:59;13.70;44.20
35313;DHT22;21425;50.454;30.466;2023-03-14T14:52:37;12.60;44.20
35313;DHT22;21425;50.454;30.466;2023-03-14T14:55:38;12.70;45.20
35313;DHT22;21425;50.454;30.466;2023-03-14T14:57:57;12.50;45.50
35313;DHT22;21425;50.454;30.466;2023-03-14T15:00:23;13.40;45.60
35313;DHT22;21425;50.454;30.466;2023-03-14T15:02:50;12.20;45.10
35313;DHT22;21425;50.454;30.466;2023-03-14T15:05:18;13.10;46.10
35313;DHT22;21425;50.454;30.466;2023-03-14T15:07:44;12.20;46.40
35313;DHT22;21425;50.454;30.466;2023-03-14T15:10:14;13.40;47.10
35313;DHT22;21425;50.454;30.466;2023-03-14T15:12:40;11.60;47.10
35313;DHT22;21425;50.454;30.466;2023-03-14T15:15:06;11.60;47.30
35313;DHT22;21425;50.454;30.466;2023-03-14T15:17:31;11.20;47.60
35313;DHT22;21425;50.454;30.466;2023-03-14T15:19:57;11.70;47.90
35313;DHT22;21425;50.454;30.466;2023-03-14T15:22:24;11.00;47.80
35313;DHT22;21425;50.454;30.466;2023-03-14T15:24:49;10.80;47.20
35313;DHT22;21425;50.454;30.466;2023-03-14T15:27:15;10.80;47.50
35313;DHT22;21425;50.454;30.466;2023-03-14T15:29:41;11.00;47.00
35313;DHT22;21425;50.454;30.466;2023-03-14T15:32:14;11.10;47.70
35313;DHT22;21425;50.454;30.466;2023-03-14T15:34:40;10.40;47.60
35313;DHT22;21425;50.454;30.466;2023-03-14T15:37:12;10.90;48.10
35313;DHT22;21425;50.454;30.466;2023-03-14T15:39:39;10.10;48.00
35313;DHT22;21425;50.454;30.466;2023-03-14T15:42:04;9.90;47.20
35313;DHT22;21425;50.454;30.466;2023-03-14T15:44:30;10.30;47.80
35313;DHT22;21425;50.454;30.466;2023-03-14T15:46:55;10.40;47.40
35313;DHT22;21425;50.454;30.466;2023-03-14T15:49:21;10.60;47.60
35313;DHT22;21425;50.454;30.466;2023-03-14T15:51:47;10.20;47.70
35313;DHT22;21425;50.454;30.466;2023-03-14T15:54:12;10.00;47.80
35313;DHT22;21425;50.454;30.466;2023-03-14T15:56:38;12.90;49.30
35313;DHT22;21425;50.454;30.466;2023-03-14T15:59:03;9.70;48.00
35313;DHT22;21425;50.454;30.466;2023-03-14T16:01:29;9.90;48.30
35313;DHT22;21425;50.454;30.466;2023-03-14T16:03:55;9.80;48.50
35313;DHT22;21425;50.454;30.466;2023-03-14T16:06:20;11.50;49.60
35313;DHT22;21425;50.454;30.466;2023-03-14T16:08:46;9.50;48.70
35313;DHT22;21425;50.454;30.466;2023-03-14T16:11:12;9.00;48.60
35313;DHT22;21425;50.454;30.466;2023-03-14T16:13:38;9.30;49.00
35313;DHT22;21425;50.454;30.466;2023-03-14T16:16:04;9.60;48.60
35313;DHT22;21425;50.454;30.466;2023-03-14T16:18:30;9.20;48.80
35313;DHT22;21425;50.454;30.466;2023-03-14T16:20:57;9.40;48.80
35313;DHT22;21425;50.454;30.466;2023-03-14T16:23:24;10.20;48.70
35313;DHT22;21425;50.454;30.466;2023-03-14T16:25:50;9.10;48.20
35313;DHT22;21425;50.454;30.466;2023-03-14T16:28:16;9.20;48.30
35313;DHT22;21425;50.454;30.466;2023-03-14T16:30:41;9.70;48.40
35313;DHT22;21425;50.454;30.466;2023-03-14T16:33:07;10.70;48.80
35313;DHT22;21425;50.454;30.466;2023-03-14T16:35:35;8.90;48.00